Kosova — 3EHS4 — position and weather

sailwx.info

Track history (hours):
 
Tides and Currents Weather Stations Pressure Air Temp Water Temp Dewpoint Dewpoint Depression Visibility Wind Speed Wind Dir Waves Ship Positions

Kosova

Last reported at 2018-Jan-08 21:00 UTC. Time now 2018-Jan-22 04:34 UTC.
Position N 37°56' E 026°23'.
Warning: this ship's position is 13 days out of date.

Length 158 m; draft 9.2 m.

Type: Ship (hazmat cat A). MMSI: 356306000.

Date/timePositionNaut miles runAvg speedWind from/ knotsBaromVisibWave heightAir tempDewpointWater temp
2018-Jan-08 21:00N 37°56' E 026°23'714.6
2018-Jan-08 20:30N 37°50' E 026°28'914.2
2018-Jan-08 19:53N 37°42' E 026°33'614.5
2018-Jan-08 19:30N 37°38' E 026°37'814.5
2018-Jan-08 18:55N 37°31' E 026°45'614.4
2018-Jan-08 18:30N 37°28' E 026°51'714.1
2018-Jan-08 18:00N 37°22' E 026°56'714.2
2018-Jan-08 17:30N 37°16' E 027°00'3812.3
2018-Jan-08 14:26N 36°42' E 027°20'  
2018-Jan-05 04:16N 35°59' E 030°30'313.1
2018-Jan-05 04:00N 35°59' E 030°26'23213.9
2018-Jan-04 11:22N 34°48' E 025°56'2014.8
2018-Jan-04 09:59N 34°44' E 025°31'815.0
2018-Jan-04 09:26N 34°43' E 025°21'615.0
2018-Jan-04 09:00N 34°42' E 025°13'815.1
2018-Jan-04 08:28N 34°40' E 025°04'  
Track history (hours):
 
Tides and Currents Weather Stations Pressure Air Temp Water Temp Dewpoint Dewpoint Depression Visibility Wind Speed Wind Dir Waves Ship Positions

Kosova

Last reported at 2018-Jan-08 21:00 UTC. Time now 2018-Jan-22 04:34 UTC.
Position N 37°56' E 026°23'.
Warning: this ship's position is 13 days out of date.

Length 158 m; draft 9.2 m.

Type: Ship (hazmat cat A). MMSI: 356306000.

Date/timePositionNaut miles runAvg speedWind from/ knotsBaromVisibWave heightAir tempDewpointWater temp
2018-Jan-08 21:00N 37°56' E 026°23'714.6
2018-Jan-08 20:30N 37°50' E 026°28'914.2
2018-Jan-08 19:53N 37°42' E 026°33'614.5
2018-Jan-08 19:30N 37°38' E 026°37'814.5
2018-Jan-08 18:55N 37°31' E 026°45'614.4
2018-Jan-08 18:30N 37°28' E 026°51'714.1
2018-Jan-08 18:00N 37°22' E 026°56'714.2
2018-Jan-08 17:30N 37°16' E 027°00'3812.3
2018-Jan-08 14:26N 36°42' E 027°20'  
2018-Jan-05 04:16N 35°59' E 030°30'313.1
2018-Jan-05 04:00N 35°59' E 030°26'23213.9
2018-Jan-04 11:22N 34°48' E 025°56'2014.8
2018-Jan-04 09:59N 34°44' E 025°31'815.0
2018-Jan-04 09:26N 34°43' E 025°21'615.0
2018-Jan-04 09:00N 34°42' E 025°13'815.1
2018-Jan-04 08:28N 34°40' E 025°04'  

Dump ship's entire track history